sensor_id;sensor_type;location;lat;lon;timestamp;temperature;humidity
66257;DHT22;53049;43.446;3.698;2024-03-17T00:01:05;12.20;99.90
66257;DHT22;53049;43.446;3.698;2024-03-17T00:03:31;12.10;99.90
66257;DHT22;53049;43.446;3.698;2024-03-17T00:06:01;12.00;99.90
66257;DHT22;53049;43.446;3.698;2024-03-17T00:08:27;11.90;99.90
66257;DHT22;53049;43.446;3.698;2024-03-17T00:10:53;11.90;99.90
66257;DHT22;53049;43.446;3.698;2024-03-17T00:13:20;11.70;99.90
66257;DHT22;53049;43.446;3.698;2024-03-17T00:15:48;11.70;99.90
66257;DHT22;53049;43.446;3.698;2024-03-17T00:18:14;11.70;99.90
66257;DHT22;53049;43.446;3.698;2024-03-17T00:20:40;11.60;99.90
66257;DHT22;53049;43.446;3.698;2024-03-17T00:23:06;11.60;99.90
66257;DHT22;53049;43.446;3.698;2024-03-17T00:25:32;11.60;99.90
66257;DHT22;53049;43.446;3.698;2024-03-17T00:28:00;11.60;99.90
66257;DHT22;53049;43.446;3.698;2024-03-17T00:30:26;11.50;99.90
66257;DHT22;53049;43.446;3.698;2024-03-17T00:32:51;11.50;99.90
66257;DHT22;53049;43.446;3.698;2024-03-17T00:35:17;11.50;99.90
66257;DHT22;53049;43.446;3.698;2024-03-17T00:37:48;11.60;99.90
66257;DHT22;53049;43.446;3.698;2024-03-17T00:40:15;11.60;99.90
66257;DHT22;53049;43.446;3.698;2024-03-17T00:42:42;11.60;99.90
66257;DHT22;53049;43.446;3.698;2024-03-17T00:45:08;11.50;99.90
66257;DHT22;53049;43.446;3.698;2024-03-17T00:47:35;11.50;99.90
66257;DHT22;53049;43.446;3.698;2024-03-17T00:50:01;11.50;99.90
66257;DHT22;53049;43.446;3.698;2024-03-17T00:52:28;11.50;99.90
66257;DHT22;53049;43.446;3.698;2024-03-17T00:54:54;11.50;99.90
66257;DHT22;53049;43.446;3.698;2024-03-17T00:57:19;11.50;99.90
66257;DHT22;53049;43.446;3.698;2024-03-17T00:59:45;11.60;99.90
66257;DHT22;53049;43.446;3.698;2024-03-17T01:02:12;11.60;99.90
66257;DHT22;53049;43.446;3.698;2024-03-17T01:04:39;11.70;99.90
66257;DHT22;53049;43.446;3.698;2024-03-17T01:07:05;11.60;99.90
66257;DHT22;53049;43.446;3.698;2024-03-17T01:09:31;11.60;99.90
66257;DHT22;53049;43.446;3.698;2024-03-17T01:11:56;11.60;99.90
66257;DHT22;53049;43.446;3.698;2024-03-17T01:14:22;11.50;99.90
66257;DHT22;53049;43.446;3.698;2024-03-17T01:16:48;11.50;99.90
66257;DHT22;53049;43.446;3.698;2024-03-17T01:19:15;11.50;99.90
66257;DHT22;53049;43.446;3.698;2024-03-17T01:21:41;11.50;99.90
66257;DHT22;53049;43.446;3.698;2024-03-17T01:24:07;11.50;99.90
66257;DHT22;53049;43.446;3.698;2024-03-17T01:26:33;11.50;99.90
66257;DHT22;53049;43.446;3.698;2024-03-17T01:28:58;11.40;99.90
66257;DHT22;53049;43.446;3.698;2024-03-17T01:31:24;11.50;99.90
66257;DHT22;53049;43.446;3.698;2024-03-17T01:33:50;11.40;99.90
66257;DHT22;53049;43.446;3.698;2024-03-17T01:36:16;11.50;99.90
66257;DHT22;53049;43.446;3.698;2024-03-17T01:38:42;11.40;99.90
66257;DHT22;53049;43.446;3.698;2024-03-17T01:41:07;11.30;99.90
66257;DHT22;53049;43.446;3.698;2024-03-17T01:43:33;11.30;99.90
66257;DHT22;53049;43.446;3.698;2024-03-17T01:45:59;11.30;99.90
66257;DHT22;53049;43.446;3.698;2024-03-17T01:48:25;11.20;99.90
66257;DHT22;53049;43.446;3.698;2024-03-17T01:50:53;11.20;99.90
66257;DHT22;53049;43.446;3.698;2024-03-17T01:53:21;11.20;99.90
66257;DHT22;53049;43.446;3.698;2024-03-17T01:55:50;11.20;99.90
66257;DHT22;53049;43.446;3.698;2024-03-17T01:58:15;11.10;99.90
66257;DHT22;53049;43.446;3.698;2024-03-17T02:00:43;11.10;99.90
66257;DHT22;53049;43.446;3.698;2024-03-17T02:03:09;11.10;99.90
66257;DHT22;53049;43.446;3.698;2024-03-17T02:05:35;11.00;99.90
66257;DHT22;53049;43.446;3.698;2024-03-17T02:08:04;11.00;99.90
66257;DHT22;53049;43.446;3.698;2024-03-17T02:10:30;11.00;99.90
66257;DHT22;53049;43.446;3.698;2024-03-17T02:12:55;11.00;99.90
66257;DHT22;53049;43.446;3.698;2024-03-17T02:15:21;10.90;99.90
66257;DHT22;53049;43.446;3.698;2024-03-17T02:17:47;10.90;99.90
66257;DHT22;53049;43.446;3.698;2024-03-17T02:20:14;10.90;99.90
66257;DHT22;53049;43.446;3.698;2024-03-17T02:22:39;10.90;99.90
66257;DHT22;53049;43.446;3.698;2024-03-17T02:25:05;10.90;99.90
66257;DHT22;53049;43.446;3.698;2024-03-17T02:27:37;10.90;99.90
66257;DHT22;53049;43.446;3.698;2024-03-17T02:30:04;10.90;99.90
66257;DHT22;53049;43.446;3.698;2024-03-17T02:32:35;10.80;99.90
66257;DHT22;53049;43.446;3.698;2024-03-17T02:35:01;10.80;99.90
66257;DHT22;53049;43.446;3.698;2024-03-17T02:37:27;10.80;99.90
66257;DHT22;53049;43.446;3.698;2024-03-17T02:39:53;10.80;99.90
66257;DHT22;53049;43.446;3.698;2024-03-17T02:42:19;10.80;99.90
66257;DHT22;53049;43.446;3.698;2024-03-17T02:44:44;10.70;99.90
66257;DHT22;53049;43.446;3.698;2024-03-17T02:47:11;10.70;99.90
66257;DHT22;53049;43.446;3.698;2024-03-17T02:49:40;10.70;99.90
66257;DHT22;53049;43.446;3.698;2024-03-17T02:52:10;10.70;99.90
66257;DHT22;53049;43.446;3.698;2024-03-17T02:54:39;10.70;99.90
66257;DHT22;53049;43.446;3.698;2024-03-17T02:57:06;10.70;99.90
66257;DHT22;53049;43.446;3.698;2024-03-17T02:59:34;10.80;99.90
66257;DHT22;53049;43.446;3.698;2024-03-17T03:02:00;10.80;99.90
66257;DHT22;53049;43.446;3.698;2024-03-17T03:04:27;10.80;99.90
66257;DHT22;53049;43.446;3.698;2024-03-17T03:06:53;11.00;99.90
66257;DHT22;53049;43.446;3.698;2024-03-17T03:09:18;11.00;99.90
66257;DHT22;53049;43.446;3.698;2024-03-17T03:11:58;11.10;99.90
66257;DHT22;53049;43.446;3.698;2024-03-17T03:14:24;11.00;99.90
66257;DHT22;53049;43.446;3.698;2024-03-17T03:16:49;11.00;99.90
66257;DHT22;53049;43.446;3.698;2024-03-17T03:19:16;11.00;99.90
66257;DHT22;53049;43.446;3.698;2024-03-17T03:21:42;10.90;99.90
66257;DHT22;53049;43.446;3.698;2024-03-17T03:24:07;10.80;99.90
66257;DHT22;53049;43.446;3.698;2024-03-17T03:26:33;10.90;99.90
66257;DHT22;53049;43.446;3.698;2024-03-17T03:28:59;10.90;99.90
66257;DHT22;53049;43.446;3.698;2024-03-17T03:31:24;10.90;99.90
66257;DHT22;53049;43.446;3.698;2024-03-17T03:33:50;10.90;99.90
66257;DHT22;53049;43.446;3.698;2024-03-17T03:36:16;10.80;99.90
66257;DHT22;53049;43.446;3.698;2024-03-17T03:38:46;10.90;99.90
66257;DHT22;53049;43.446;3.698;2024-03-17T03:41:14;10.90;99.90
66257;DHT22;53049;43.446;3.698;2024-03-17T03:43:40;10.90;99.90
66257;DHT22;53049;43.446;3.698;2024-03-17T03:46:07;11.00;99.90
66257;DHT22;53049;43.446;3.698;2024-03-17T03:48:33;11.00;99.90
66257;DHT22;53049;43.446;3.698;2024-03-17T03:51:04;11.00;99.90
66257;DHT22;53049;43.446;3.698;2024-03-17T03:53:30;11.00;99.90
66257;DHT22;53049;43.446;3.698;2024-03-17T03:55:57;11.00;99.90
66257;DHT22;53049;43.446;3.698;2024-03-17T03:58:23;11.00;99.90
66257;DHT22;53049;43.446;3.698;2024-03-17T04:00:49;11.00;99.90
66257;DHT22;53049;43.446;3.698;2024-03-17T04:03:15;11.10;99.90
66257;DHT22;53049;43.446;3.698;2024-03-17T04:05:41;11.10;99.90
66257;DHT22;53049;43.446;3.698;2024-03-17T04:08:07;11.10;99.90
66257;DHT22;53049;43.446;3.698;2024-03-17T04:10:34;11.10;99.90
66257;DHT22;53049;43.446;3.698;2024-03-17T04:13:00;11.10;99.90
66257;DHT22;53049;43.446;3.698;2024-03-17T04:15:26;11.10;99.90
66257;DHT22;53049;43.446;3.698;2024-03-17T04:17:52;11.20;99.90
66257;DHT22;53049;43.446;3.698;2024-03-17T04:20:18;11.20;99.90
66257;DHT22;53049;43.446;3.698;2024-03-17T04:22:43;11.30;99.90
66257;DHT22;53049;43.446;3.698;2024-03-17T04:25:10;11.40;99.90
66257;DHT22;53049;43.446;3.698;2024-03-17T04:27:36;11.40;99.90
66257;DHT22;53049;43.446;3.698;2024-03-17T04:30:02;11.50;99.90
66257;DHT22;53049;43.446;3.698;2024-03-17T04:32:31;11.40;99.90
66257;DHT22;53049;43.446;3.698;2024-03-17T04:34:57;11.40;99.90
66257;DHT22;53049;43.446;3.698;2024-03-17T04:37:22;11.40;99.90
66257;DHT22;53049;43.446;3.698;2024-03-17T04:39:50;11.40;99.90
66257;DHT22;53049;43.446;3.698;2024-03-17T04:42:18;11.40;99.90
66257;DHT22;53049;43.446;3.698;2024-03-17T04:44:45;11.40;99.90
66257;DHT22;53049;43.446;3.698;2024-03-17T04:47:11;11.40;99.90
66257;DHT22;53049;43.446;3.698;2024-03-17T04:49:38;11.40;99.90
66257;DHT22;53049;43.446;3.698;2024-03-17T04:52:04;11.50;99.90
66257;DHT22;53049;43.446;3.698;2024-03-17T04:54:33;11.50;99.90
66257;DHT22;53049;43.446;3.698;2024-03-17T04:56:59;11.50;99.90
66257;DHT22;53049;43.446;3.698;2024-03-17T04:59:25;11.50;99.90
66257;DHT22;53049;43.446;3.698;2024-03-17T05:01:51;11.60;99.90
66257;DHT22;53049;43.446;3.698;2024-03-17T05:04:18;11.60;99.90
66257;DHT22;53049;43.446;3.698;2024-03-17T05:06:43;11.60;99.90
66257;DHT22;53049;43.446;3.698;2024-03-17T05:09:13;11.60;99.90
66257;DHT22;53049;43.446;3.698;2024-03-17T05:11:42;11.60;99.90
66257;DHT22;53049;43.446;3.698;2024-03-17T05:14:08;11.60;99.90
66257;DHT22;53049;43.446;3.698;2024-03-17T05:16:34;11.60;99.90
66257;DHT22;53049;43.446;3.698;2024-03-17T05:19:00;11.60;99.90
66257;DHT22;53049;43.446;3.698;2024-03-17T05:21:25;11.60;99.90
66257;DHT22;53049;43.446;3.698;2024-03-17T05:23:52;11.60;99.90
66257;DHT22;53049;43.446;3.698;2024-03-17T05:26:18;11.60;99.90
66257;DHT22;53049;43.446;3.698;2024-03-17T05:28:44;11.60;99.90
66257;DHT22;53049;43.446;3.698;2024-03-17T05:31:12;11.60;99.90
66257;DHT22;53049;43.446;3.698;2024-03-17T05:33:40;11.50;99.90
66257;DHT22;53049;43.446;3.698;2024-03-17T05:36:06;11.50;99.90
66257;DHT22;53049;43.446;3.698;2024-03-17T05:38:32;11.50;99.90
66257;DHT22;53049;43.446;3.698;2024-03-17T05:40:59;11.50;99.90
66257;DHT22;53049;43.446;3.698;2024-03-17T05:43:26;11.50;99.90
66257;DHT22;53049;43.446;3.698;2024-03-17T05:45:57;11.50;99.90
66257;DHT22;53049;43.446;3.698;2024-03-17T05:48:23;11.60;99.90
66257;DHT22;53049;43.446;3.698;2024-03-17T05:50:52;11.50;99.90
66257;DHT22;53049;43.446;3.698;2024-03-17T05:53:18;11.50;99.90
66257;DHT22;53049;43.446;3.698;2024-03-17T05:55:44;11.50;99.90
66257;DHT22;53049;43.446;3.698;2024-03-17T05:58:10;11.60;99.90
66257;DHT22;53049;43.446;3.698;2024-03-17T06:00:37;11.60;99.90
66257;DHT22;53049;43.446;3.698;2024-03-17T06:03:04;11.60;99.90
66257;DHT22;53049;43.446;3.698;2024-03-17T06:05:34;11.50;99.90
66257;DHT22;53049;43.446;3.698;2024-03-17T06:08:04;11.50;99.90
66257;DHT22;53049;43.446;3.698;2024-03-17T06:10:31;11.60;99.90
66257;DHT22;53049;43.446;3.698;2024-03-17T06:12:58;11.60;99.90
66257;DHT22;53049;43.446;3.698;2024-03-17T06:15:24;11.60;99.90
66257;DHT22;53049;43.446;3.698;2024-03-17T06:17:51;11.60;99.90
66257;DHT22;53049;43.446;3.698;2024-03-17T06:20:23;11.60;99.90
66257;DHT22;53049;43.446;3.698;2024-03-17T06:22:55;11.60;99.90
66257;DHT22;53049;43.446;3.698;2024-03-17T06:25:21;11.60;99.90
66257;DHT22;53049;43.446;3.698;2024-03-17T06:27:50;11.60;99.90
66257;DHT22;53049;43.446;3.698;2024-03-17T06:30:16;11.70;99.90
66257;DHT22;53049;43.446;3.698;2024-03-17T06:32:43;11.70;99.90
66257;DHT22;53049;43.446;3.698;2024-03-17T06:35:11;11.70;99.90
66257;DHT22;53049;43.446;3.698;2024-03-17T06:37:37;11.70;99.90
66257;DHT22;53049;43.446;3.698;2024-03-17T06:40:04;11.80;99.90
66257;DHT22;53049;43.446;3.698;2024-03-17T06:42:31;11.90;99.90
66257;DHT22;53049;43.446;3.698;2024-03-17T06:44:57;11.90;99.90
66257;DHT22;53049;43.446;3.698;2024-03-17T06:47:23;12.00;99.90
66257;DHT22;53049;43.446;3.698;2024-03-17T06:49:49;12.00;99.90
66257;DHT22;53049;43.446;3.698;2024-03-17T06:52:15;12.00;99.90
66257;DHT22;53049;43.446;3.698;2024-03-17T06:54:40;12.10;99.90
66257;DHT22;53049;43.446;3.698;2024-03-17T06:57:08;12.10;99.90
66257;DHT22;53049;43.446;3.698;2024-03-17T06:59:33;12.10;99.90
66257;DHT22;53049;43.446;3.698;2024-03-17T07:01:59;12.10;99.90
66257;DHT22;53049;43.446;3.698;2024-03-17T07:04:24;12.20;99.90
66257;DHT22;53049;43.446;3.698;2024-03-17T07:06:50;12.20;99.90
66257;DHT22;53049;43.446;3.698;2024-03-17T07:09:16;12.30;99.90
66257;DHT22;53049;43.446;3.698;2024-03-17T07:11:43;12.30;99.90
66257;DHT22;53049;43.446;3.698;2024-03-17T07:14:09;12.40;99.90
66257;DHT22;53049;43.446;3.698;2024-03-17T07:16:35;12.50;99.90
66257;DHT22;53049;43.446;3.698;2024-03-17T07:19:04;12.50;99.90
66257;DHT22;53049;43.446;3.698;2024-03-17T07:21:30;12.70;99.90
66257;DHT22;53049;43.446;3.698;2024-03-17T07:23:57;12.70;99.90
66257;DHT22;53049;43.446;3.698;2024-03-17T07:26:25;12.80;99.90
66257;DHT22;53049;43.446;3.698;2024-03-17T07:28:50;12.90;99.90
66257;DHT22;53049;43.446;3.698;2024-03-17T07:31:16;12.90;99.90
66257;DHT22;53049;43.446;3.698;2024-03-17T07:33:42;12.90;99.90
66257;DHT22;53049;43.446;3.698;2024-03-17T07:36:08;12.90;99.90
66257;DHT22;53049;43.446;3.698;2024-03-17T07:38:35;12.90;99.90
66257;DHT22;53049;43.446;3.698;2024-03-17T07:41:02;12.90;99.90
66257;DHT22;53049;43.446;3.698;2024-03-17T07:43:29;12.90;99.90
66257;DHT22;53049;43.446;3.698;2024-03-17T07:48:32;13.00;99.90
66257;DHT22;53049;43.446;3.698;2024-03-17T07:51:03;13.20;99.90
66257;DHT22;53049;43.446;3.698;2024-03-17T07:53:36;13.30;99.90
66257;DHT22;53049;43.446;3.698;2024-03-17T07:56:06;13.50;99.90
66257;DHT22;53049;43.446;3.698;2024-03-17T07:58:33;13.60;99.90
66257;DHT22;53049;43.446;3.698;2024-03-17T08:01:03;13.60;99.90
66257;DHT22;53049;43.446;3.698;2024-03-17T08:03:30;13.70;99.90
66257;DHT22;53049;43.446;3.698;2024-03-17T08:05:57;13.80;99.90
66257;DHT22;53049;43.446;3.698;2024-03-17T08:08:23;13.90;99.90
66257;DHT22;53049;43.446;3.698;2024-03-17T08:10:49;14.00;99.90
66257;DHT22;53049;43.446;3.698;2024-03-17T08:13:17;14.10;99.90
66257;DHT22;53049;43.446;3.698;2024-03-17T08:15:44;14.20;99.90
66257;DHT22;53049;43.446;3.698;2024-03-17T08:18:11;14.30;99.90
66257;DHT22;53049;43.446;3.698;2024-03-17T08:20:40;14.40;99.90
66257;DHT22;53049;43.446;3.698;2024-03-17T08:23:06;14.40;99.90
66257;DHT22;53049;43.446;3.698;2024-03-17T08:25:35;14.40;99.90
66257;DHT22;53049;43.446;3.698;2024-03-17T08:28:01;14.50;99.90
66257;DHT22;53049;43.446;3.698;2024-03-17T08:30:28;14.50;99.90
66257;DHT22;53049;43.446;3.698;2024-03-17T08:32:59;14.60;99.90
66257;DHT22;53049;43.446;3.698;2024-03-17T08:35:24;14.60;99.90
66257;DHT22;53049;43.446;3.698;2024-03-17T08:37:50;14.60;99.90
66257;DHT22;53049;43.446;3.698;2024-03-17T08:40:17;14.60;99.90
66257;DHT22;53049;43.446;3.698;2024-03-17T08:42:43;14.70;99.90
66257;DHT22;53049;43.446;3.698;2024-03-17T08:45:11;14.70;99.90
66257;DHT22;53049;43.446;3.698;2024-03-17T08:47:36;14.80;99.90
66257;DHT22;53049;43.446;3.698;2024-03-17T08:50:02;14.80;99.90
66257;DHT22;53049;43.446;3.698;2024-03-17T08:52:32;14.80;99.90
66257;DHT22;53049;43.446;3.698;2024-03-17T08:54:58;14.90;99.90
66257;DHT22;53049;43.446;3.698;2024-03-17T08:57:24;14.90;99.90
66257;DHT22;53049;43.446;3.698;2024-03-17T08:59:50;15.00;99.90
66257;DHT22;53049;43.446;3.698;2024-03-17T09:02:19;15.00;99.90
66257;DHT22;53049;43.446;3.698;2024-03-17T09:04:49;15.10;99.90
66257;DHT22;53049;43.446;3.698;2024-03-17T09:07:15;15.20;99.90
66257;DHT22;53049;43.446;3.698;2024-03-17T09:09:46;15.30;99.90
66257;DHT22;53049;43.446;3.698;2024-03-17T09:12:12;15.40;99.90
66257;DHT22;53049;43.446;3.698;2024-03-17T09:14:37;15.40;99.90
66257;DHT22;53049;43.446;3.698;2024-03-17T09:17:03;15.60;99.90
66257;DHT22;53049;43.446;3.698;2024-03-17T09:19:29;15.80;99.90
66257;DHT22;53049;43.446;3.698;2024-03-17T09:21:55;16.00;99.90
66257;DHT22;53049;43.446;3.698;2024-03-17T09:24:21;16.10;99.90
66257;DHT22;53049;43.446;3.698;2024-03-17T09:26:46;16.00;99.90
66257;DHT22;53049;43.446;3.698;2024-03-17T09:29:13;16.10;99.90
66257;DHT22;53049;43.446;3.698;2024-03-17T09:31:41;16.10;99.90
66257;DHT22;53049;43.446;3.698;2024-03-17T09:34:07;16.10;99.90
66257;DHT22;53049;43.446;3.698;2024-03-17T09:36:33;16.10;99.90
66257;DHT22;53049;43.446;3.698;2024-03-17T09:38:58;16.20;99.90
66257;DHT22;53049;43.446;3.698;2024-03-17T09:41:26;16.20;99.90
66257;DHT22;53049;43.446;3.698;2024-03-17T09:43:56;16.30;99.90
66257;DHT22;53049;43.446;3.698;2024-03-17T09:46:26;16.50;99.90
66257;DHT22;53049;43.446;3.698;2024-03-17T09:48:54;17.00;99.90
66257;DHT22;53049;43.446;3.698;2024-03-17T09:51:24;17.10;99.90
66257;DHT22;53049;43.446;3.698;2024-03-17T09:53:51;17.60;99.90
66257;DHT22;53049;43.446;3.698;2024-03-17T09:56:21;17.70;99.90
66257;DHT22;53049;43.446;3.698;2024-03-17T09:58:48;17.60;99.90
66257;DHT22;53049;43.446;3.698;2024-03-17T10:01:14;17.50;99.90
66257;DHT22;53049;43.446;3.698;2024-03-17T10:03:52;17.50;99.90
66257;DHT22;53049;43.446;3.698;2024-03-17T10:06:23;17.70;99.90
66257;DHT22;53049;43.446;3.698;2024-03-17T10:08:51;17.90;99.90
66257;DHT22;53049;43.446;3.698;2024-03-17T10:11:22;17.50;99.90
66257;DHT22;53049;43.446;3.698;2024-03-17T10:14:05;17.30;99.90
66257;DHT22;53049;43.446;3.698;2024-03-17T10:16:32;17.30;99.90
66257;DHT22;53049;43.446;3.698;2024-03-17T10:19:09;17.20;99.90
66257;DHT22;53049;43.446;3.698;2024-03-17T10:21:45;17.20;99.90
66257;DHT22;53049;43.446;3.698;2024-03-17T10:24:25;17.30;99.90
66257;DHT22;53049;43.446;3.698;2024-03-17T10:31:56;17.50;99.90
66257;DHT22;53049;43.446;3.698;2024-03-17T10:34:24;17.50;99.90
66257;DHT22;53049;43.446;3.698;2024-03-17T10:37:08;17.50;99.90
66257;DHT22;53049;43.446;3.698;2024-03-17T10:39:37;17.50;99.90
66257;DHT22;53049;43.446;3.698;2024-03-17T10:42:05;17.60;99.90
66257;DHT22;53049;43.446;3.698;2024-03-17T10:44:32;17.60;99.90
66257;DHT22;53049;43.446;3.698;2024-03-17T10:46:59;17.70;99.90
66257;DHT22;53049;43.446;3.698;2024-03-17T10:49:30;17.70;99.90
66257;DHT22;53049;43.446;3.698;2024-03-17T10:52:03;17.60;99.90
66257;DHT22;53049;43.446;3.698;2024-03-17T10:54:33;17.80;99.90
66257;DHT22;53049;43.446;3.698;2024-03-17T11:00:03;17.70;99.90
66257;DHT22;53049;43.446;3.698;2024-03-17T11:02:31;17.70;99.90
66257;DHT22;53049;43.446;3.698;2024-03-17T11:05:20;17.60;99.90
66257;DHT22;53049;43.446;3.698;2024-03-17T11:07:48;17.60;99.90
66257;DHT22;53049;43.446;3.698;2024-03-17T11:10:28;17.50;99.90
66257;DHT22;53049;43.446;3.698;2024-03-17T11:12:56;17.60;99.90
66257;DHT22;53049;43.446;3.698;2024-03-17T11:17:56;17.80;99.90
66257;DHT22;53049;43.446;3.698;2024-03-17T11:20:43;17.80;99.90
66257;DHT22;53049;43.446;3.698;2024-03-17T11:23:09;17.90;99.90
66257;DHT22;53049;43.446;3.698;2024-03-17T11:28:01;17.90;99.90
66257;DHT22;53049;43.446;3.698;2024-03-17T11:30:49;17.90;99.90
66257;DHT22;53049;43.446;3.698;2024-03-17T11:41:37;18.00;99.90
66257;DHT22;53049;43.446;3.698;2024-03-17T11:46:38;17.90;99.90
66257;DHT22;53049;43.446;3.698;2024-03-17T11:49:04;18.00;99.90
66257;DHT22;53049;43.446;3.698;2024-03-17T11:51:29;18.00;99.90
66257;DHT22;53049;43.446;3.698;2024-03-17T11:53:59;18.00;99.90
66257;DHT22;53049;43.446;3.698;2024-03-17T11:56:24;17.90;99.90
66257;DHT22;53049;43.446;3.698;2024-03-17T11:59:07;18.00;99.90
66257;DHT22;53049;43.446;3.698;2024-03-17T12:01:36;18.20;99.90
66257;DHT22;53049;43.446;3.698;2024-03-17T12:04:04;18.20;99.90
66257;DHT22;53049;43.446;3.698;2024-03-17T12:06:31;18.20;99.90
66257;DHT22;53049;43.446;3.698;2024-03-17T12:09:26;18.30;99.90
66257;DHT22;53049;43.446;3.698;2024-03-17T12:12:08;18.30;99.90
66257;DHT22;53049;43.446;3.698;2024-03-17T12:14:35;18.30;99.90
66257;DHT22;53049;43.446;3.698;2024-03-17T12:17:03;18.40;99.90
66257;DHT22;53049;43.446;3.698;2024-03-17T12:19:30;18.50;99.90
66257;DHT22;53049;43.446;3.698;2024-03-17T12:21:58;18.40;99.90
66257;DHT22;53049;43.446;3.698;2024-03-17T12:24:29;18.40;99.90
66257;DHT22;53049;43.446;3.698;2024-03-17T12:26:56;18.30;99.90
66257;DHT22;53049;43.446;3.698;2024-03-17T12:32:02;18.30;99.90
66257;DHT22;53049;43.446;3.698;2024-03-17T12:34:30;18.20;99.90
66257;DHT22;53049;43.446;3.698;2024-03-17T12:36:57;18.20;99.90
66257;DHT22;53049;43.446;3.698;2024-03-17T12:39:25;18.20;99.90
66257;DHT22;53049;43.446;3.698;2024-03-17T12:44:33;18.10;99.90
66257;DHT22;53049;43.446;3.698;2024-03-17T12:47:00;18.00;99.90
66257;DHT22;53049;43.446;3.698;2024-03-17T12:49:27;18.00;99.90
66257;DHT22;53049;43.446;3.698;2024-03-17T12:51:54;18.10;99.90
66257;DHT22;53049;43.446;3.698;2024-03-17T12:54:24;18.10;99.90
66257;DHT22;53049;43.446;3.698;2024-03-17T12:57:12;18.10;99.90
66257;DHT22;53049;43.446;3.698;2024-03-17T12:59:55;18.10;99.90
66257;DHT22;53049;43.446;3.698;2024-03-17T13:02:43;18.20;99.90
66257;DHT22;53049;43.446;3.698;2024-03-17T13:05:17;18.40;99.90
66257;DHT22;53049;43.446;3.698;2024-03-17T13:07:44;18.30;99.90
66257;DHT22;53049;43.446;3.698;2024-03-17T13:10:12;18.40;99.90
66257;DHT22;53049;43.446;3.698;2024-03-17T13:12:38;18.30;99.90
66257;DHT22;53049;43.446;3.698;2024-03-17T13:15:05;18.30;99.90
66257;DHT22;53049;43.446;3.698;2024-03-17T13:17:31;18.30;99.90
66257;DHT22;53049;43.446;3.698;2024-03-17T13:20:00;18.20;99.90
66257;DHT22;53049;43.446;3.698;2024-03-17T13:22:26;18.10;99.90
66257;DHT22;53049;43.446;3.698;2024-03-17T13:24:51;18.10;99.90
66257;DHT22;53049;43.446;3.698;2024-03-17T13:27:17;18.10;99.90
66257;DHT22;53049;43.446;3.698;2024-03-17T13:29:47;18.20;99.90
66257;DHT22;53049;43.446;3.698;2024-03-17T13:32:13;18.30;99.90
66257;DHT22;53049;43.446;3.698;2024-03-17T13:34:39;18.30;99.90
66257;DHT22;53049;43.446;3.698;2024-03-17T13:37:05;18.30;99.90
66257;DHT22;53049;43.446;3.698;2024-03-17T13:39:31;18.30;99.90
66257;DHT22;53049;43.446;3.698;2024-03-17T13:42:00;18.20;99.90
66257;DHT22;53049;43.446;3.698;2024-03-17T13:44:32;18.20;99.90
66257;DHT22;53049;43.446;3.698;2024-03-17T13:46:59;18.10;99.90
66257;DHT22;53049;43.446;3.698;2024-03-17T13:49:27;18.10;99.90
66257;DHT22;53049;43.446;3.698;2024-03-17T13:51:54;18.00;99.90
66257;DHT22;53049;43.446;3.698;2024-03-17T13:54:20;18.00;99.90
66257;DHT22;53049;43.446;3.698;2024-03-17T13:56:47;17.90;99.90
66257;DHT22;53049;43.446;3.698;2024-03-17T13:59:14;17.80;99.90
66257;DHT22;53049;43.446;3.698;2024-03-17T14:01:40;17.80;99.90
66257;DHT22;53049;43.446;3.698;2024-03-17T14:04:13;17.90;99.90
66257;DHT22;53049;43.446;3.698;2024-03-17T14:06:41;17.90;99.90
66257;DHT22;53049;43.446;3.698;2024-03-17T14:09:06;17.80;99.90
66257;DHT22;53049;43.446;3.698;2024-03-17T14:11:34;17.80;99.90
66257;DHT22;53049;43.446;3.698;2024-03-17T14:14:00;17.70;99.90
66257;DHT22;53049;43.446;3.698;2024-03-17T14:16:26;17.70;99.90
66257;DHT22;53049;43.446;3.698;2024-03-17T14:18:51;17.40;99.90
66257;DHT22;53049;43.446;3.698;2024-03-17T14:21:17;17.40;99.90
66257;DHT22;53049;43.446;3.698;2024-03-17T14:23:43;17.40;99.90
66257;DHT22;53049;43.446;3.698;2024-03-17T14:26:10;17.50;99.90
66257;DHT22;53049;43.446;3.698;2024-03-17T14:28:38;17.50;99.90
66257;DHT22;53049;43.446;3.698;2024-03-17T14:31:03;17.50;99.90
66257;DHT22;53049;43.446;3.698;2024-03-17T14:33:29;17.50;99.90
66257;DHT22;53049;43.446;3.698;2024-03-17T14:35:59;17.40;99.90
66257;DHT22;53049;43.446;3.698;2024-03-17T14:38:26;17.40;99.90
66257;DHT22;53049;43.446;3.698;2024-03-17T14:40:52;17.40;99.90
66257;DHT22;53049;43.446;3.698;2024-03-17T14:43:19;17.40;99.90
66257;DHT22;53049;43.446;3.698;2024-03-17T14:45:45;17.40;99.90
66257;DHT22;53049;43.446;3.698;2024-03-17T14:48:11;17.30;99.90
66257;DHT22;53049;43.446;3.698;2024-03-17T14:50:38;17.30;99.90
66257;DHT22;53049;43.446;3.698;2024-03-17T14:53:04;17.20;99.90
66257;DHT22;53049;43.446;3.698;2024-03-17T14:55:31;17.20;99.90
66257;DHT22;53049;43.446;3.698;2024-03-17T14:57:56;17.10;99.90
66257;DHT22;53049;43.446;3.698;2024-03-17T15:00:22;17.10;99.90
66257;DHT22;53049;43.446;3.698;2024-03-17T15:02:51;17.20;99.90
66257;DHT22;53049;43.446;3.698;2024-03-17T15:05:17;17.20;99.90
66257;DHT22;53049;43.446;3.698;2024-03-17T15:07:47;17.20;99.90
66257;DHT22;53049;43.446;3.698;2024-03-17T15:10:14;17.10;99.90
66257;DHT22;53049;43.446;3.698;2024-03-17T15:12:49;17.10;99.90
66257;DHT22;53049;43.446;3.698;2024-03-17T15:15:15;17.10;99.90
66257;DHT22;53049;43.446;3.698;2024-03-17T15:17:41;17.10;99.90
66257;DHT22;53049;43.446;3.698;2024-03-17T15:20:10;17.00;99.90
66257;DHT22;53049;43.446;3.698;2024-03-17T15:22:51;17.00;99.90
66257;DHT22;53049;43.446;3.698;2024-03-17T15:25:17;17.10;99.90
66257;DHT22;53049;43.446;3.698;2024-03-17T15:27:44;17.20;99.90
66257;DHT22;53049;43.446;3.698;2024-03-17T15:30:14;17.10;99.90
66257;DHT22;53049;43.446;3.698;2024-03-17T15:32:43;17.00;99.90
66257;DHT22;53049;43.446;3.698;2024-03-17T15:35:10;16.90;99.90
66257;DHT22;53049;43.446;3.698;2024-03-17T15:37:36;16.90;99.90
66257;DHT22;53049;43.446;3.698;2024-03-17T15:40:02;16.90;99.90
66257;DHT22;53049;43.446;3.698;2024-03-17T15:42:28;16.90;99.90
66257;DHT22;53049;43.446;3.698;2024-03-17T15:44:54;16.90;99.90
66257;DHT22;53049;43.446;3.698;2024-03-17T15:47:19;16.90;99.90
66257;DHT22;53049;43.446;3.698;2024-03-17T15:49:46;16.90;99.90
66257;DHT22;53049;43.446;3.698;2024-03-17T15:52:11;16.80;99.90
66257;DHT22;53049;43.446;3.698;2024-03-17T15:54:37;16.80;99.90
66257;DHT22;53049;43.446;3.698;2024-03-17T15:57:03;16.70;99.90
66257;DHT22;53049;43.446;3.698;2024-03-17T15:59:29;16.70;99.90
66257;DHT22;53049;43.446;3.698;2024-03-17T16:01:54;16.60;99.90
66257;DHT22;53049;43.446;3.698;2024-03-17T16:04:22;16.60;99.90